Bankstown, Australia
Current Conditions -  °F | °C
As of 6:00 PM on Wednesday 22 Oct 2014 (Local Time) from YSSY Reporting Station
Clear Clear  
Wind Chill: 70°   Ceiling: Unl
Heat Index: 70°   Visibility: 6mi
Dew Point: 52°   Wind: 25mph
Humidity: 53%   Direction: 30°NNE
Pressure: 30.12"   Gusts: NA
Location:  33.92°S, 151.03°E
Report Text: YSSY 220700Z 03022KT CAVOK 21/11 Q1020 NOSIG
Loading
Personal Weather Stations






























Interactive Weather Map
Tropical Storm Tracking
New forecast layout! Learn more

10-Day Weather Forecast

Advertisements
Track Severe Weather on mobile